EGCN/DSA METAR and TAF weather

Enter ICAO airport designator
Station Type Date Time Source
EGCN METAR 2018/07/21 13:20 UTC NOAA

EGCN 211320Z 27008KT 240V300 9999 BKN039 24/13 Q1014


Station Type Date Time Source
EGCN Decoded METAR 2018/07/21 13:20 UTC NOAA

Station name not available
Jul 21, 2018 - 09:20 AM EDT / 2018.07.21 1320 UTC
Wind: from the W (270 degrees) at 9 MPH (8 KT) (direction variable):0
Visibility: greater than 7 mile(s):0
Sky conditions: mostly cloudy
Temperature: 75 F (24 C)
Dew Point: 55 F (13 C)
Relative Humidity: 50%
Pressure (altimeter): 29.94 in. Hg (1014 hPa)
ob: EGCN 211320Z 27008KT 240V300 9999 BKN039 24/13 Q1014
cycle: 13

Station Type Date Time Source
EGCN TAF 2018/07/21 12:00 UTC NOAA

TAF EGCN 211100Z 2112/2212 27008KT 9999 FEW025


Example: see airport list